sensor_id;sensor_type;location;lat;lon;timestamp;pressure;altitude;pressure_sealevel;temperature;humidity
49473;BME280;67434;50.956;6.918;2023-02-10T00:02:13;103079.72;;;3.35;76.45
49473;BME280;67434;50.956;6.918;2023-02-10T00:04:40;103083.50;;;3.32;76.04
49473;BME280;67434;50.956;6.918;2023-02-10T00:07:05;103089.47;;;3.26;76.38
49473;BME280;67434;50.956;6.918;2023-02-10T00:09:30;103091.69;;;3.31;76.18
49473;BME280;67434;50.956;6.918;2023-02-10T00:11:56;103101.53;;;3.30;76.04
49473;BME280;67434;50.956;6.918;2023-02-10T00:14:21;103100.16;;;3.26;76.28
49473;BME280;67434;50.956;6.918;2023-02-10T00:16:51;103101.84;;;3.27;76.65
49473;BME280;67434;50.956;6.918;2023-02-10T00:19:18;103107.72;;;3.31;75.96
49473;BME280;67434;50.956;6.918;2023-02-10T00:21:44;103104.63;;;3.35;75.91
49473;BME280;67434;50.956;6.918;2023-02-10T00:24:09;103097.06;;;3.49;75.34
49473;BME280;67434;50.956;6.918;2023-02-10T00:26:34;103099.03;;;3.47;75.41
49473;BME280;67434;50.956;6.918;2023-02-10T00:29:00;103096.22;;;3.48;75.54
49473;BME280;67434;50.956;6.918;2023-02-10T00:31:25;103098.59;;;3.51;75.35
49473;BME280;67434;50.956;6.918;2023-02-10T00:33:57;103098.81;;;3.58;75.22
49473;BME280;67434;50.956;6.918;2023-02-10T00:36:22;103091.56;;;3.50;74.98
49473;BME280;67434;50.956;6.918;2023-02-10T00:38:50;103104.84;;;3.42;75.16
49473;BME280;67434;50.956;6.918;2023-02-10T00:41:20;103106.03;;;3.30;76.01
49473;BME280;67434;50.956;6.918;2023-02-10T00:43:46;103105.81;;;3.23;76.05
49473;BME280;67434;50.956;6.918;2023-02-10T00:46:13;103111.66;;;3.36;75.28
49473;BME280;67434;50.956;6.918;2023-02-10T00:48:43;103117.22;;;3.43;75.30
49473;BME280;67434;50.956;6.918;2023-02-10T00:51:08;103115.25;;;3.45;75.34
49473;BME280;67434;50.956;6.918;2023-02-10T00:53:34;103114.56;;;3.43;74.97
49473;BME280;67434;50.956;6.918;2023-02-10T00:55:59;103113.41;;;3.45;74.74
49473;BME280;67434;50.956;6.918;2023-02-10T00:58:25;103116.78;;;3.48;74.75
49473;BME280;67434;50.956;6.918;2023-02-10T01:00:51;103109.50;;;3.58;74.51
49473;BME280;67434;50.956;6.918;2023-02-10T01:03:19;103112.41;;;3.64;74.52
49473;BME280;67434;50.956;6.918;2023-02-10T01:05:45;103111.72;;;3.62;74.09
49473;BME280;67434;50.956;6.918;2023-02-10T01:08:12;103106.22;;;3.64;74.27
49473;BME280;67434;50.956;6.918;2023-02-10T01:10:37;103117.06;;;3.62;74.79
49473;BME280;67434;50.956;6.918;2023-02-10T01:13:06;103110.34;;;3.58;74.31
49473;BME280;67434;50.956;6.918;2023-02-10T01:15:35;103112.66;;;3.53;75.01
49473;BME280;67434;50.956;6.918;2023-02-10T01:18:01;103125.63;;;3.48;75.10
49473;BME280;67434;50.956;6.918;2023-02-10T01:20:27;103124.56;;;3.41;75.43
49473;BME280;67434;50.956;6.918;2023-02-10T01:22:52;103128.81;;;3.34;75.81
49473;BME280;67434;50.956;6.918;2023-02-10T01:25:20;103126.44;;;3.31;75.62
49473;BME280;67434;50.956;6.918;2023-02-10T01:27:46;103124.59;;;3.31;75.59
49473;BME280;67434;50.956;6.918;2023-02-10T01:30:11;103131.19;;;3.37;75.84
49473;BME280;67434;50.956;6.918;2023-02-10T01:32:37;103131.97;;;3.47;75.52
49473;BME280;67434;50.956;6.918;2023-02-10T01:35:03;103128.75;;;3.43;75.86
49473;BME280;67434;50.956;6.918;2023-02-10T01:37:29;103138.00;;;3.49;75.05
49473;BME280;67434;50.956;6.918;2023-02-10T01:39:54;103137.69;;;3.52;75.66
49473;BME280;67434;50.956;6.918;2023-02-10T01:42:19;103134.25;;;3.60;74.40
49473;BME280;67434;50.956;6.918;2023-02-10T01:47:11;103137.31;;;3.65;75.05
49473;BME280;67434;50.956;6.918;2023-02-10T01:49:42;103134.81;;;3.63;74.84
49473;BME280;67434;50.956;6.918;2023-02-10T01:52:13;103136.47;;;3.64;74.78
49473;BME280;67434;50.956;6.918;2023-02-10T01:55:10;103136.13;;;3.77;75.31
49473;BME280;67434;50.956;6.918;2023-02-10T01:57:40;103139.25;;;3.72;74.64
49473;BME280;67434;50.956;6.918;2023-02-10T02:00:07;103137.69;;;3.70;75.67
49473;BME280;67434;50.956;6.918;2023-02-10T02:02:33;103144.44;;;3.74;75.02
49473;BME280;67434;50.956;6.918;2023-02-10T02:05:34;103144.59;;;3.72;75.12
49473;BME280;67434;50.956;6.918;2023-02-10T02:08:16;103140.53;;;3.68;75.50
49473;BME280;67434;50.956;6.918;2023-02-10T02:30:11;103143.88;;;3.70;75.51
49473;BME280;67434;50.956;6.918;2023-02-10T02:33:19;103156.03;;;3.65;75.66
49473;BME280;67434;50.956;6.918;2023-02-10T02:36:12;103165.75;;;3.66;75.36
49473;BME280;67434;50.956;6.918;2023-02-10T02:38:42;103158.72;;;3.65;75.33
49473;BME280;67434;50.956;6.918;2023-02-10T02:41:08;103148.78;;;3.57;75.57
49473;BME280;67434;50.956;6.918;2023-02-10T02:43:33;103159.88;;;3.62;75.85
49473;BME280;67434;50.956;6.918;2023-02-10T02:46:22;103153.69;;;3.62;76.09
49473;BME280;67434;50.956;6.918;2023-02-10T02:48:58;103162.91;;;3.67;75.76
49473;BME280;67434;50.956;6.918;2023-02-10T02:51:36;103155.88;;;3.66;75.88
49473;BME280;67434;50.956;6.918;2023-02-10T02:56:43;103166.59;;;3.66;75.52
49473;BME280;67434;50.956;6.918;2023-02-10T02:59:23;103163.22;;;3.64;75.31
49473;BME280;67434;50.956;6.918;2023-02-10T03:01:53;103170.56;;;3.62;75.79
49473;BME280;67434;50.956;6.918;2023-02-10T03:04:21;103166.06;;;3.63;75.80
49473;BME280;67434;50.956;6.918;2023-02-10T03:06:46;103188.00;;;3.66;75.47
49473;BME280;67434;50.956;6.918;2023-02-10T03:09:14;103184.47;;;3.66;75.38
49473;BME280;67434;50.956;6.918;2023-02-10T03:11:39;103186.59;;;3.62;75.68
49473;BME280;67434;50.956;6.918;2023-02-10T03:14:05;103186.69;;;3.70;74.96
49473;BME280;67434;50.956;6.918;2023-02-10T03:16:30;103178.97;;;3.67;75.63
49473;BME280;67434;50.956;6.918;2023-02-10T03:18:55;103174.91;;;3.63;75.89
49473;BME280;67434;50.956;6.918;2023-02-10T03:21:21;103188.28;;;3.63;75.52
49473;BME280;67434;50.956;6.918;2023-02-10T03:23:46;103195.84;;;3.68;76.05
49473;BME280;67434;50.956;6.918;2023-02-10T03:26:12;103192.59;;;3.74;75.27
49473;BME280;67434;50.956;6.918;2023-02-10T03:28:37;103183.44;;;3.76;75.24
49473;BME280;67434;50.956;6.918;2023-02-10T03:31:04;103188.47;;;3.80;74.83
49473;BME280;67434;50.956;6.918;2023-02-10T03:33:30;103197.13;;;3.73;75.45
49473;BME280;67434;50.956;6.918;2023-02-10T03:35:56;103187.59;;;3.61;75.42
49473;BME280;67434;50.956;6.918;2023-02-10T03:38:23;103192.25;;;3.59;75.89
49473;BME280;67434;50.956;6.918;2023-02-10T03:40:49;103194.31;;;3.48;76.61
49473;BME280;67434;50.956;6.918;2023-02-10T03:43:15;103185.09;;;3.32;76.97
49473;BME280;67434;50.956;6.918;2023-02-10T03:45:41;103188.81;;;3.22;77.03
49473;BME280;67434;50.956;6.918;2023-02-10T03:48:06;103186.00;;;3.23;77.02
49473;BME280;67434;50.956;6.918;2023-02-10T03:50:31;103174.00;;;3.27;77.12
49473;BME280;67434;50.956;6.918;2023-02-10T03:52:57;103171.25;;;3.19;77.10
49473;BME280;67434;50.956;6.918;2023-02-10T03:55:22;103162.84;;;3.14;77.09
49473;BME280;67434;50.956;6.918;2023-02-10T03:57:47;103155.41;;;3.08;76.94
49473;BME280;67434;50.956;6.918;2023-02-10T04:00:13;103154.75;;;2.96;77.64
49473;BME280;67434;50.956;6.918;2023-02-10T04:02:39;103147.47;;;2.89;78.07
49473;BME280;67434;50.956;6.918;2023-02-10T04:05:04;103147.72;;;2.95;77.61
49473;BME280;67434;50.956;6.918;2023-02-10T04:07:30;103130.91;;;2.85;77.97
49473;BME280;67434;50.956;6.918;2023-02-10T04:09:55;103133.91;;;2.72;79.09
49473;BME280;67434;50.956;6.918;2023-02-10T04:12:21;103122.94;;;2.75;79.40
49473;BME280;67434;50.956;6.918;2023-02-10T04:14:49;103133.53;;;2.58;79.39
49473;BME280;67434;50.956;6.918;2023-02-10T04:17:14;103128.22;;;2.48;79.68
49473;BME280;67434;50.956;6.918;2023-02-10T04:19:39;103147.63;;;2.40;80.18
49473;BME280;67434;50.956;6.918;2023-02-10T04:22:05;103150.56;;;2.47;79.90
49473;BME280;67434;50.956;6.918;2023-02-10T04:24:30;103151.16;;;2.31;80.85
49473;BME280;67434;50.956;6.918;2023-02-10T04:26:56;103151.31;;;2.20;81.30
49473;BME280;67434;50.956;6.918;2023-02-10T04:29:22;103154.53;;;2.14;80.73
49473;BME280;67434;50.956;6.918;2023-02-10T04:31:47;103162.41;;;2.06;81.01
49473;BME280;67434;50.956;6.918;2023-02-10T04:34:12;103161.31;;;1.99;81.29
49473;BME280;67434;50.956;6.918;2023-02-10T04:36:39;103168.34;;;1.90;81.35
49473;BME280;67434;50.956;6.918;2023-02-10T04:39:04;103169.00;;;1.82;82.28
49473;BME280;67434;50.956;6.918;2023-02-10T04:41:30;103180.97;;;1.88;82.88
49473;BME280;67434;50.956;6.918;2023-02-10T04:43:55;103189.63;;;1.80;83.10
49473;BME280;67434;50.956;6.918;2023-02-10T04:46:20;103171.09;;;1.69;83.17
49473;BME280;67434;50.956;6.918;2023-02-10T04:48:46;103178.97;;;1.80;82.54
49473;BME280;67434;50.956;6.918;2023-02-10T04:51:12;103176.16;;;1.82;82.78
49473;BME280;67434;50.956;6.918;2023-02-10T04:53:38;103174.75;;;1.68;83.35
49473;BME280;67434;50.956;6.918;2023-02-10T04:56:05;103182.63;;;1.60;83.48
49473;BME280;67434;50.956;6.918;2023-02-10T04:58:31;103206.75;;;1.59;84.13
49473;BME280;67434;50.956;6.918;2023-02-10T05:00:57;103189.19;;;1.56;83.61
49473;BME280;67434;50.956;6.918;2023-02-10T05:03:23;103187.19;;;1.48;83.87
49473;BME280;67434;50.956;6.918;2023-02-10T05:05:49;103187.59;;;1.44;84.79
49473;BME280;67434;50.956;6.918;2023-02-10T05:08:17;103193.81;;;1.54;84.03
49473;BME280;67434;50.956;6.918;2023-02-10T05:10:46;103197.28;;;1.45;84.54
49473;BME280;67434;50.956;6.918;2023-02-10T05:13:12;103201.22;;;1.41;84.70
49473;BME280;67434;50.956;6.918;2023-02-10T05:15:37;103192.34;;;1.31;85.27
49473;BME280;67434;50.956;6.918;2023-02-10T05:18:02;103198.25;;;1.34;85.01
49473;BME280;67434;50.956;6.918;2023-02-10T05:20:29;103187.28;;;1.28;84.96
49473;BME280;67434;50.956;6.918;2023-02-10T05:22:54;103189.41;;;1.24;85.58
49473;BME280;67434;50.956;6.918;2023-02-10T05:25:19;103180.13;;;1.18;85.67
49473;BME280;67434;50.956;6.918;2023-02-10T05:27:45;103188.53;;;1.14;86.15
49473;BME280;67434;50.956;6.918;2023-02-10T05:30:11;103213.59;;;1.11;85.70
49473;BME280;67434;50.956;6.918;2023-02-10T05:32:38;103189.03;;;1.08;86.63
49473;BME280;67434;50.956;6.918;2023-02-10T05:35:04;103192.50;;;0.99;86.53
49473;BME280;67434;50.956;6.918;2023-02-10T05:37:29;103195.03;;;1.00;86.62
49473;BME280;67434;50.956;6.918;2023-02-10T05:39:55;103202.50;;;1.06;85.99
49473;BME280;67434;50.956;6.918;2023-02-10T05:42:20;103198.25;;;0.94;86.49
49473;BME280;67434;50.956;6.918;2023-02-10T05:44:46;103200.31;;;0.90;86.88
49473;BME280;67434;50.956;6.918;2023-02-10T05:47:11;103211.66;;;0.83;87.37
49473;BME280;67434;50.956;6.918;2023-02-10T05:49:36;103201.75;;;0.74;87.83
49473;BME280;67434;50.956;6.918;2023-02-10T05:52:02;103200.91;;;0.73;87.66
49473;BME280;67434;50.956;6.918;2023-02-10T05:54:30;103204.25;;;0.66;87.93
49473;BME280;67434;50.956;6.918;2023-02-10T05:56:55;103219.25;;;0.67;87.39
49473;BME280;67434;50.956;6.918;2023-02-10T05:59:21;103203.47;;;0.75;87.51
49473;BME280;67434;50.956;6.918;2023-02-10T06:01:46;103204.31;;;0.75;86.74
49473;BME280;67434;50.956;6.918;2023-02-10T06:04:17;103209.56;;;0.66;87.19
49473;BME280;67434;50.956;6.918;2023-02-10T06:06:43;103212.22;;;0.66;87.74
49473;BME280;67434;50.956;6.918;2023-02-10T06:09:27;103210.81;;;0.61;87.13
49473;BME280;67434;50.956;6.918;2023-02-10T06:11:53;103203.78;;;0.60;87.01
49473;BME280;67434;50.956;6.918;2023-02-10T06:14:19;103203.22;;;0.57;87.17
49473;BME280;67434;50.956;6.918;2023-02-10T06:16:45;103201.75;;;0.43;88.33
49473;BME280;67434;50.956;6.918;2023-02-10T06:19:10;103197.53;;;0.41;88.72
49473;BME280;67434;50.956;6.918;2023-02-10T06:21:43;103209.47;;;0.46;88.55
49473;BME280;67434;50.956;6.918;2023-02-10T06:24:08;103202.59;;;0.44;87.91
49473;BME280;67434;50.956;6.918;2023-02-10T06:26:35;103211.28;;;0.46;87.81
49473;BME280;67434;50.956;6.918;2023-02-10T06:29:01;103216.00;;;0.42;87.80
49473;BME280;67434;50.956;6.918;2023-02-10T06:31:27;103220.53;;;0.30;88.48
49473;BME280;67434;50.956;6.918;2023-02-10T06:33:52;103225.41;;;0.25;88.58
49473;BME280;67434;50.956;6.918;2023-02-10T06:36:18;103244.16;;;0.24;88.99
49473;BME280;67434;50.956;6.918;2023-02-10T06:38:43;103240.50;;;0.25;89.15
49473;BME280;67434;50.956;6.918;2023-02-10T06:41:08;103235.78;;;0.28;88.87
49473;BME280;67434;50.956;6.918;2023-02-10T06:43:34;103226.75;;;0.20;88.53
49473;BME280;67434;50.956;6.918;2023-02-10T06:45:59;103243.34;;;0.12;89.26
49473;BME280;67434;50.956;6.918;2023-02-10T06:48:25;103239.97;;;0.10;89.28
49473;BME280;67434;50.956;6.918;2023-02-10T06:50:51;103236.47;;;0.10;89.84
49473;BME280;67434;50.956;6.918;2023-02-10T06:53:17;103249.53;;;0.13;89.61
49473;BME280;67434;50.956;6.918;2023-02-10T06:55:42;103251.22;;;0.14;89.09
49473;BME280;67434;50.956;6.918;2023-02-10T06:58:08;103253.75;;;0.15;89.16
49473;BME280;67434;50.956;6.918;2023-02-10T07:00:34;103264.25;;;0.17;89.09
49473;BME280;67434;50.956;6.918;2023-02-10T07:03:00;103276.84;;;0.15;88.91
49473;BME280;67434;50.956;6.918;2023-02-10T07:05:25;103272.09;;;0.18;88.91
49473;BME280;67434;50.956;6.918;2023-02-10T07:07:50;103270.63;;;0.25;88.61
49473;BME280;67434;50.956;6.918;2023-02-10T07:10:17;103279.19;;;0.29;88.87
49473;BME280;67434;50.956;6.918;2023-02-10T07:12:43;103278.94;;;0.32;88.87
49473;BME280;67434;50.956;6.918;2023-02-10T07:15:09;103274.44;;;0.44;88.49
49473;BME280;67434;50.956;6.918;2023-02-10T07:17:34;103277.47;;;0.60;88.53
49473;BME280;67434;50.956;6.918;2023-02-10T07:20:01;103280.66;;;0.96;86.94
49473;BME280;67434;50.956;6.918;2023-02-10T07:22:27;103277.31;;;1.24;85.49
49473;BME280;67434;50.956;6.918;2023-02-10T07:24:52;103278.19;;;1.34;85.23
49473;BME280;67434;50.956;6.918;2023-02-10T07:27:17;103286.19;;;1.34;85.60
49473;BME280;67434;50.956;6.918;2023-02-10T07:29:48;103284.78;;;1.30;85.67
49473;BME280;67434;50.956;6.918;2023-02-10T07:32:14;103272.56;;;1.28;85.47
49473;BME280;67434;50.956;6.918;2023-02-10T07:34:40;103280.97;;;1.23;86.07
49473;BME280;67434;50.956;6.918;2023-02-10T07:37:06;103275.63;;;1.23;86.07
49473;BME280;67434;50.956;6.918;2023-02-10T07:39:32;103274.25;;;1.29;85.96
49473;BME280;67434;50.956;6.918;2023-02-10T07:41:57;103276.25;;;1.36;85.36
49473;BME280;67434;50.956;6.918;2023-02-10T07:44:25;103274.13;;;1.30;85.39
49473;BME280;67434;50.956;6.918;2023-02-10T07:46:51;103296.53;;;1.28;85.58
49473;BME280;67434;50.956;6.918;2023-02-10T07:49:18;103270.34;;;1.33;85.56
49473;BME280;67434;50.956;6.918;2023-02-10T07:51:43;103269.09;;;1.37;85.29
49473;BME280;67434;50.956;6.918;2023-02-10T07:54:11;103270.44;;;1.52;84.33
49473;BME280;67434;50.956;6.918;2023-02-10T07:56:37;103269.91;;;1.68;84.11
49473;BME280;67434;50.956;6.918;2023-02-10T07:59:02;103266.97;;;1.80;83.33
49473;BME280;67434;50.956;6.918;2023-02-10T08:01:37;103274.31;;;1.98;82.68
49473;BME280;67434;50.956;6.918;2023-02-10T08:04:07;103274.47;;;2.06;82.95
49473;BME280;67434;50.956;6.918;2023-02-10T08:06:32;103279.25;;;2.12;82.45
49473;BME280;67434;50.956;6.918;2023-02-10T08:08:58;103272.50;;;2.17;81.82
49473;BME280;67434;50.956;6.918;2023-02-10T08:11:23;103271.69;;;2.27;81.77
49473;BME280;67434;50.956;6.918;2023-02-10T08:13:48;103275.75;;;2.31;81.24
49473;BME280;67434;50.956;6.918;2023-02-10T08:16:14;103278.28;;;2.32;80.96
49473;BME280;67434;50.956;6.918;2023-02-10T08:18:40;103282.09;;;2.30;81.28
49473;BME280;67434;50.956;6.918;2023-02-10T08:21:05;103284.47;;;2.23;81.91
49473;BME280;67434;50.956;6.918;2023-02-10T08:23:31;103289.06;;;2.21;82.03
49473;BME280;67434;50.956;6.918;2023-02-10T08:26:09;103282.06;;;2.20;81.61
49473;BME280;67434;50.956;6.918;2023-02-10T08:28:36;103282.06;;;2.20;82.24
49473;BME280;67434;50.956;6.918;2023-02-10T08:31:07;103275.03;;;2.09;82.56
49473;BME280;67434;50.956;6.918;2023-02-10T08:33:37;103279.25;;;2.12;81.80
49473;BME280;67434;50.956;6.918;2023-02-10T08:36:08;103276.47;;;2.23;81.86
49473;BME280;67434;50.956;6.918;2023-02-10T08:38:34;103276.88;;;2.28;81.72
49473;BME280;67434;50.956;6.918;2023-02-10T08:41:00;103282.94;;;2.30;81.46
49473;BME280;67434;50.956;6.918;2023-02-10T08:43:26;103288.41;;;2.38;81.15
49473;BME280;67434;50.956;6.918;2023-02-10T08:45:51;103300.19;;;2.45;80.86
49473;BME280;67434;50.956;6.918;2023-02-10T08:48:19;103293.72;;;2.58;80.39
49473;BME280;67434;50.956;6.918;2023-02-10T08:50:45;103300.47;;;2.71;80.05
49473;BME280;67434;50.956;6.918;2023-02-10T08:53:10;103297.75;;;2.91;79.37
49473;BME280;67434;50.956;6.918;2023-02-10T08:55:36;103312.94;;;3.09;78.76
49473;BME280;67434;50.956;6.918;2023-02-10T08:58:02;103290.03;;;3.34;78.20
49473;BME280;67434;50.956;6.918;2023-02-10T09:00:28;103300.53;;;3.55;77.04
49473;BME280;67434;50.956;6.918;2023-02-10T09:02:53;103303.41;;;3.71;76.66
49473;BME280;67434;50.956;6.918;2023-02-10T09:05:27;103303.31;;;3.91;76.28
49473;BME280;67434;50.956;6.918;2023-02-10T09:07:58;103302.94;;;4.03;75.24
49473;BME280;67434;50.956;6.918;2023-02-10T09:10:31;103316.50;;;4.20;75.06
49473;BME280;67434;50.956;6.918;2023-02-10T09:12:57;103298.06;;;4.34;74.56
49473;BME280;67434;50.956;6.918;2023-02-10T09:15:22;103307.97;;;4.52;73.66
49473;BME280;67434;50.956;6.918;2023-02-10T09:17:48;103306.78;;;4.72;73.06
49473;BME280;67434;50.956;6.918;2023-02-10T09:20:13;103300.47;;;4.81;73.00
49473;BME280;67434;50.956;6.918;2023-02-10T09:22:48;103291.59;;;4.81;72.35
49473;BME280;67434;50.956;6.918;2023-02-10T09:25:14;103302.63;;;4.78;72.20
49473;BME280;67434;50.956;6.918;2023-02-10T09:27:40;103306.56;;;4.83;72.13
49473;BME280;67434;50.956;6.918;2023-02-10T09:30:05;103313.81;;;4.91;71.64
49473;BME280;67434;50.956;6.918;2023-02-10T09:32:31;103297.63;;;5.00;71.45
49473;BME280;67434;50.956;6.918;2023-02-10T09:34:56;103323.16;;;5.13;70.90
49473;BME280;67434;50.956;6.918;2023-02-10T09:37:22;103316.13;;;5.38;70.12
49473;BME280;67434;50.956;6.918;2023-02-10T09:39:48;103310.66;;;5.55;69.27
49473;BME280;67434;50.956;6.918;2023-02-10T09:45:15;103313.56;;;5.62;68.75
49473;BME280;67434;50.956;6.918;2023-02-10T09:47:48;103302.25;;;5.50;69.31
49473;BME280;67434;50.956;6.918;2023-02-10T09:50:22;103315.22;;;5.29;69.78
49473;BME280;67434;50.956;6.918;2023-02-10T09:53:07;103305.75;;;5.17;69.99
49473;BME280;67434;50.956;6.918;2023-02-10T09:55:46;103304.03;;;5.08;70.91
49473;BME280;67434;50.956;6.918;2023-02-10T09:58:21;103310.50;;;4.97;71.08
49473;BME280;67434;50.956;6.918;2023-02-10T10:00:52;103314.03;;;4.97;71.56
49473;BME280;67434;50.956;6.918;2023-02-10T10:03:26;103318.38;;;4.98;70.97
49473;BME280;67434;50.956;6.918;2023-02-10T10:06:10;103314.34;;;4.94;71.38
49473;BME280;67434;50.956;6.918;2023-02-10T10:09:05;103315.28;;;4.85;71.83
49473;BME280;67434;50.956;6.918;2023-02-10T10:11:51;103324.06;;;4.95;71.59
49473;BME280;67434;50.956;6.918;2023-02-10T10:14:33;103328.63;;;5.03;71.28
49473;BME280;67434;50.956;6.918;2023-02-10T10:17:50;103326.94;;;5.02;71.07
49473;BME280;67434;50.956;6.918;2023-02-10T10:28:29;103327.94;;;5.01;71.53
49473;BME280;67434;50.956;6.918;2023-02-10T10:33:40;103336.66;;;5.03;71.59
49473;BME280;67434;50.956;6.918;2023-02-10T10:36:14;103338.81;;;4.99;72.18
49473;BME280;67434;50.956;6.918;2023-02-10T10:38:46;103337.81;;;5.00;71.52
49473;BME280;67434;50.956;6.918;2023-02-10T10:41:14;103333.16;;;5.02;72.02
49473;BME280;67434;50.956;6.918;2023-02-10T10:43:47;103340.41;;;5.10;71.31
49473;BME280;67434;50.956;6.918;2023-02-10T10:46:26;103334.41;;;5.16;71.87
49473;BME280;67434;50.956;6.918;2023-02-10T10:48:53;103330.44;;;5.20;71.71
49473;BME280;67434;50.956;6.918;2023-02-10T10:51:19;103329.47;;;5.29;71.43
49473;BME280;67434;50.956;6.918;2023-02-10T10:58:58;103310.81;;;5.54;71.15
49473;BME280;67434;50.956;6.918;2023-02-10T11:01:42;103312.22;;;5.58;70.72
49473;BME280;67434;50.956;6.918;2023-02-10T11:04:13;103312.94;;;5.76;70.24
49473;BME280;67434;50.956;6.918;2023-02-10T11:06:40;103316.31;;;5.86;69.56
49473;BME280;67434;50.956;6.918;2023-02-10T11:11:46;103304.66;;;5.95;69.66
49473;BME280;67434;50.956;6.918;2023-02-10T11:14:21;103294.13;;;6.02;69.76
49473;BME280;67434;50.956;6.918;2023-02-10T11:16:51;103289.41;;;6.04;69.49
49473;BME280;67434;50.956;6.918;2023-02-10T11:19:21;103291.91;;;5.98;69.62
49473;BME280;67434;50.956;6.918;2023-02-10T11:21:46;103297.00;;;6.17;69.75
49473;BME280;67434;50.956;6.918;2023-02-10T11:27:01;103292.66;;;6.56;67.84
49473;BME280;67434;50.956;6.918;2023-02-10T11:29:45;103273.69;;;6.74;67.72
49473;BME280;67434;50.956;6.918;2023-02-10T11:32:28;103277.50;;;7.04;66.76
49473;BME280;67434;50.956;6.918;2023-02-10T11:34:57;103280.63;;;7.32;65.82
49473;BME280;67434;50.956;6.918;2023-02-10T11:37:34;103271.50;;;7.49;64.94
49473;BME280;67434;50.956;6.918;2023-02-10T11:40:05;103278.84;;;7.64;64.90
49473;BME280;67434;50.956;6.918;2023-02-10T11:42:40;103267.97;;;7.49;64.40
49473;BME280;67434;50.956;6.918;2023-02-10T11:47:42;103261.78;;;7.71;63.92
49473;BME280;67434;50.956;6.918;2023-02-10T11:50:29;103255.22;;;8.05;63.09
49473;BME280;67434;50.956;6.918;2023-02-10T11:52:55;103240.38;;;8.32;61.96
49473;BME280;67434;50.956;6.918;2023-02-10T11:55:35;103235.16;;;8.53;60.93
49473;BME280;67434;50.956;6.918;2023-02-10T12:01:09;103230.13;;;8.50;61.43
49473;BME280;67434;50.956;6.918;2023-02-10T12:03:43;103240.72;;;8.52;60.84
49473;BME280;67434;50.956;6.918;2023-02-10T12:06:36;103237.94;;;8.45;60.16
49473;BME280;67434;50.956;6.918;2023-02-10T12:09:14;103236.28;;;8.13;61.07
49473;BME280;67434;50.956;6.918;2023-02-10T12:11:54;103247.41;;;8.18;59.77
49473;BME280;67434;50.956;6.918;2023-02-10T12:17:28;103244.28;;;8.52;59.06
49473;BME280;67434;50.956;6.918;2023-02-10T12:20:18;103240.22;;;8.56;59.47
49473;BME280;67434;50.956;6.918;2023-02-10T12:28:37;103232.00;;;9.02;57.09
49473;BME280;67434;50.956;6.918;2023-02-10T12:37:16;103217.75;;;9.37;56.23
49473;BME280;67434;50.956;6.918;2023-02-10T12:40:24;103211.78;;;9.27;56.11
49473;BME280;67434;50.956;6.918;2023-02-10T12:43:15;103209.56;;;9.16;55.42
49473;BME280;67434;50.956;6.918;2023-02-10T12:46:17;103198.97;;;9.00;55.92
49473;BME280;67434;50.956;6.918;2023-02-10T12:49:23;103191.81;;;8.92;55.66
49473;BME280;67434;50.956;6.918;2023-02-10T12:52:06;103195.75;;;8.52;54.34
49473;BME280;67434;50.956;6.918;2023-02-10T12:54:43;103193.69;;;8.54;55.55
49473;BME280;67434;50.956;6.918;2023-02-10T12:57:17;103176.03;;;8.37;55.52
49473;BME280;67434;50.956;6.918;2023-02-10T13:00:05;103172.78;;;8.41;54.29
49473;BME280;67434;50.956;6.918;2023-02-10T13:02:40;103176.97;;;8.44;53.32
49473;BME280;67434;50.956;6.918;2023-02-10T13:05:11;103179.19;;;8.40;53.47
49473;BME280;67434;50.956;6.918;2023-02-10T13:07:45;103176.06;;;8.29;53.63
49473;BME280;67434;50.956;6.918;2023-02-10T13:10:36;103173.69;;;8.34;53.99
49473;BME280;67434;50.956;6.918;2023-02-10T13:13:19;103170.03;;;8.27;53.57
49473;BME280;67434;50.956;6.918;2023-02-10T13:16:10;103170.25;;;8.17;54.42
49473;BME280;67434;50.956;6.918;2023-02-10T13:19:03;103171.97;;;8.18;54.38
49473;BME280;67434;50.956;6.918;2023-02-10T13:24:44;103166.16;;;7.83;55.78
49473;BME280;67434;50.956;6.918;2023-02-10T13:30:13;103154.94;;;7.72;56.88
49473;BME280;67434;50.956;6.918;2023-02-10T13:35:22;103167.44;;;7.65;57.44
49473;BME280;67434;50.956;6.918;2023-02-10T13:37:52;103155.47;;;7.67;57.22
49473;BME280;67434;50.956;6.918;2023-02-10T13:40:50;103159.44;;;7.79;57.42
49473;BME280;67434;50.956;6.918;2023-02-10T13:43:31;103157.75;;;7.78;57.35
49473;BME280;67434;50.956;6.918;2023-02-10T13:45:59;103176.59;;;7.78;57.83
49473;BME280;67434;50.956;6.918;2023-02-10T13:48:28;103165.31;;;7.83;57.98
49473;BME280;67434;50.956;6.918;2023-02-10T13:50:58;103150.19;;;7.82;57.69
49473;BME280;67434;50.956;6.918;2023-02-10T13:58:50;103146.81;;;8.03;57.48
49473;BME280;67434;50.956;6.918;2023-02-10T14:04:05;103146.84;;;8.18;55.95
49473;BME280;67434;50.956;6.918;2023-02-10T14:06:37;103144.16;;;8.18;55.52
49473;BME280;67434;50.956;6.918;2023-02-10T14:09:21;103139.84;;;8.08;55.35
49473;BME280;67434;50.956;6.918;2023-02-10T14:11:48;103128.72;;;8.11;55.16
49473;BME280;67434;50.956;6.918;2023-02-10T14:14:24;103127.31;;;8.15;55.15
49473;BME280;67434;50.956;6.918;2023-02-10T14:16:50;103137.03;;;8.25;54.85
49473;BME280;67434;50.956;6.918;2023-02-10T14:19:31;103134.44;;;8.31;53.94
49473;BME280;67434;50.956;6.918;2023-02-10T14:21:58;103134.81;;;8.28;54.67
49473;BME280;67434;50.956;6.918;2023-02-10T14:24:29;103129.97;;;8.24;54.23
49473;BME280;67434;50.956;6.918;2023-02-10T14:26:57;103128.47;;;8.21;53.90
49473;BME280;67434;50.956;6.918;2023-02-10T14:29:26;103130.34;;;8.21;54.46
49473;BME280;67434;50.956;6.918;2023-02-10T14:31:59;103133.56;;;8.16;53.94
49473;BME280;67434;50.956;6.918;2023-02-10T14:34:31;103122.75;;;8.01;54.67
49473;BME280;67434;50.956;6.918;2023-02-10T14:37:26;103127.94;;;8.03;54.77
49473;BME280;67434;50.956;6.918;2023-02-10T14:39:55;103131.66;;;8.25;54.88
49473;BME280;67434;50.956;6.918;2023-02-10T14:42:23;103127.59;;;8.43;54.71